Terminal Aerodrome Forecast
Issued by NWS Wilmington, OH

Current Version | Previous Version | Text Only | Print | Product List | Glossary Off
Versions: 1 2 3 4 5 6 7 8 9 10 11 12 13 14 15 16 17

000
FTUS41 KILN 301700
TAFDAY
TAF
KDAY 301730Z 3018/0118 24012KT P6SM VCSH BKN030 BKN050
      TEMPO 3018/3019 25015G22KT 3SM -TSRA BR OVC020CB
     FM010100 26007KT P6SM SCT050
     FM010900 28004KT 5SM BR FEW020
     FM011300 30006KT P6SM SCT025
      TEMPO 0114/0118 BKN025=

USA.gov is the U.S. government's official web portal to all federal, state and local government web resources and services.